Coupar Angus, United Kingdom
Current Conditions -  °F | °C
As of 1:20 PM on Thursday 27 Nov 2014 (Local Time) from EGPN Reporting Station
Broken Clouds Broken Clouds  
Wind Chill: 45°   Ceiling: 4500
Heat Index: 48°   Visibility: 4mi
Dew Point: 46°   Wind: 7mph
Humidity: 93%   Direction: 60°ENE
Pressure: 29.59"   Gusts: NA
Location:  56.55°N, 3.27°W
Report Text: EGPN 271320Z 06006KT 7000 FEW008 SCT015 BKN045 09/08 Q1002
Loading
Personal Weather Stations






























Interactive Weather Map New forecast layout! Learn more

10-Day Weather Forecast

Advertisements
Track Severe Weather on mobile